Ashton, South Dakota
Current Conditions -  °F | °C
As of 5:53 PM on Saturday 25 Oct 2014 (Local Time) from KABR Reporting Station
Clear Clear  
Wind Chill: 64°   Ceiling: Unl
Heat Index: 64°   Visibility: 10mi
Dew Point: 29°   Wind: 0mph
Humidity: 27%   Direction: NA
Pressure: 30.08"   Gusts: NA
Location:  44.99°N, 98.5°W
Report Text: KABR 252253Z AUTO 00000KT 10SM CLR 18/M02 A3008 RMK AO2 SLP186 T01781017
Loading
Personal Weather Stations






























Interactive Weather Map
Tropical Storm Tracking
New forecast layout! Learn more

10-Day Weather Forecast

Advertisements
Track Severe Weather on mobile